Prospect, Pennsylvania
Current Conditions -  °F | °C
As of 7:15 PM on Sunday 23 Nov 2014 (Local Time) from KBTP Reporting Station
Clear Clear  
Wind Chill: 55°   Ceiling: Unl
Heat Index: 55°   Visibility: 10mi
Dew Point: 36°   Wind: 15mph
Humidity: 47%   Direction: 120°ESE
Pressure: 29.76"   Gusts: 21mph
Location:  40.9°N, 80.05°W
Report Text: KBTP 240015Z AUTO 12013G18KT 10SM CLR 13/02 A2976 RMK AO1
Loading
Personal Weather Stations






























Interactive Weather Map New forecast layout! Learn more

10-Day Weather Forecast

Advertisements
Track Severe Weather on mobile